sensor_id;sensor_type;location;lat;lon;timestamp;pressure;altitude;pressure_sealevel;temperature;humidity
45789;BME280;31492;54.856;26.318;2022-09-09T02:13:56;1008.4;;;5.9;100
45789;BME280;31492;54.856;26.318;2022-09-09T02:19:01;1008.6;;;4.6;100
45789;BME280;31492;54.856;26.318;2022-09-09T02:23:51;1008.6;;;4.7;100
45789;BME280;31492;54.856;26.318;2022-09-09T02:28:52;1008.5;;;4.7;100
45789;BME280;31492;54.856;26.318;2022-09-09T02:33:56;1008.5;;;4.7;100
45789;BME280;31492;54.856;26.318;2022-09-09T02:38:49;1008.4;;;4.6;100
45789;BME280;31492;54.856;26.318;2022-09-09T02:43:45;1008.4;;;4.6;100
45789;BME280;31492;54.856;26.318;2022-09-09T02:48:59;1008.4;;;4.7;100
45789;BME280;31492;54.856;26.318;2022-09-09T02:54:59;1008.3;;;4.7;100
45789;BME280;31492;54.856;26.318;2022-09-09T02:58:57;1008.4;;;4.6;100
45789;BME280;31492;54.856;26.318;2022-09-09T03:03:53;1008.3;;;4.6;100
45789;BME280;31492;54.856;26.318;2022-09-09T03:08:43;1008.3;;;4.7;100
45789;BME280;31492;54.856;26.318;2022-09-09T03:13:53;1008.3;;;4.7;100
45789;BME280;31492;54.856;26.318;2022-09-09T03:18:51;1008.4;;;4.6;100
45789;BME280;31492;54.856;26.318;2022-09-09T03:23:53;1008.4;;;4.4;100
45789;BME280;31492;54.856;26.318;2022-09-09T03:28:42;1008.5;;;4.2;100
45789;BME280;31492;54.856;26.318;2022-09-09T03:33:57;1008.4;;;4.1;100
45789;BME280;31492;54.856;26.318;2022-09-09T03:38:52;1008.5;;;4.1;100
45789;BME280;31492;54.856;26.318;2022-09-09T03:43:51;1008.5;;;4.2;100
45789;BME280;31492;54.856;26.318;2022-09-09T03:48:57;1008.5;;;4.2;100
45789;BME280;31492;54.856;26.318;2022-09-09T03:53:55;1008.6;;;4.1;100
45789;BME280;31492;54.856;26.318;2022-09-09T03:58:45;1008.6;;;4;100
45789;BME280;31492;54.856;26.318;2022-09-09T04:03:45;1008.6;;;4;100
45789;BME280;31492;54.856;26.318;2022-09-09T04:08:53;1008.6;;;3.9;100
45789;BME280;31492;54.856;26.318;2022-09-09T04:13:55;1008.6;;;4;100
45789;BME280;31492;54.856;26.318;2022-09-09T04:18:57;1008.7;;;4.3;100
45789;BME280;31492;54.856;26.318;2022-09-09T04:23:55;1008.7;;;4.3;100
45789;BME280;31492;54.856;26.318;2022-09-09T04:28:57;1008.7;;;4.3;100
45789;BME280;31492;54.856;26.318;2022-09-09T04:33:57;1008.7;;;4.3;100
45789;BME280;31492;54.856;26.318;2022-09-09T04:38:53;1008.7;;;4.3;100
45789;BME280;31492;54.856;26.318;2022-09-09T04:43:57;1008.7;;;4.5;100
45789;BME280;31492;54.856;26.318;2022-09-09T04:48:55;1008.8;;;4.7;100
45789;BME280;31492;54.856;26.318;2022-09-09T04:53:51;1008.8;;;4.8;100
45789;BME280;31492;54.856;26.318;2022-09-09T04:58:59;1008.9;;;4.9;100
45789;BME280;31492;54.856;26.318;2022-09-09T05:03:55;1008.8;;;5;100
45789;BME280;31492;54.856;26.318;2022-09-09T05:08:59;1008.8;;;5.1;100
45789;BME280;31492;54.856;26.318;2022-09-09T05:13:59;1008.8;;;5.1;100
45789;BME280;31492;54.856;26.318;2022-09-09T05:18:57;1008.8;;;5.2;100
45789;BME280;31492;54.856;26.318;2022-09-09T05:23:59;1008.8;;;5.4;100
45789;BME280;31492;54.856;26.318;2022-09-09T05:29:01;1008.8;;;5.5;100
45789;BME280;31492;54.856;26.318;2022-09-09T05:33:30;1008.8;;;5.6;100
45789;BME280;31492;54.856;26.318;2022-09-09T05:39:01;1008.8;;;5.7;100
45789;BME280;31492;54.856;26.318;2022-09-09T05:43:59;1008.7;;;5.8;100
45789;BME280;31492;54.856;26.318;2022-09-09T05:48:59;1008.7;;;5.9;100
45789;BME280;31492;54.856;26.318;2022-09-09T05:53:55;1008.7;;;6;100
45789;BME280;31492;54.856;26.318;2022-09-09T05:58:56;1008.8;;;6.2;100
45789;BME280;31492;54.856;26.318;2022-09-09T06:03:25;1008.8;;;6.3;100
45789;BME280;31492;54.856;26.318;2022-09-09T06:08:54;1008.8;;;6.5;100
45789;BME280;31492;54.856;26.318;2022-09-09T06:13:55;1008.9;;;6.6;100
45789;BME280;31492;54.856;26.318;2022-09-09T06:18:56;1008.9;;;6.8;100
45789;BME280;31492;54.856;26.318;2022-09-09T06:23:59;1008.9;;;7.1;100
45789;BME280;31492;54.856;26.318;2022-09-09T06:28:58;1008.9;;;7.4;100
45789;BME280;31492;54.856;26.318;2022-09-09T06:33:56;1008.9;;;7.6;100
45789;BME280;31492;54.856;26.318;2022-09-09T06:39:00;1008.9;;;7.9;100
45789;BME280;31492;54.856;26.318;2022-09-09T06:43:59;1008.8;;;8.1;100
45789;BME280;31492;54.856;26.318;2022-09-09T06:49:01;1008.8;;;8.5;100
45789;BME280;31492;54.856;26.318;2022-09-09T06:54:02;1008.7;;;9.6;100
45789;BME280;31492;54.856;26.318;2022-09-09T06:59:03;1008.6;;;10.8;100
45789;BME280;31492;54.856;26.318;2022-09-09T07:03:59;1008.6;;;12;100
45789;BME280;31492;54.856;26.318;2022-09-09T07:08:56;1008.5;;;12.8;100
45789;BME280;31492;54.856;26.318;2022-09-09T07:14:01;1008.4;;;13.6;100
45789;BME280;31492;54.856;26.318;2022-09-09T07:18:59;1008.4;;;14.3;100
45789;BME280;31492;54.856;26.318;2022-09-09T07:23:57;1008.4;;;15.3;97
45789;BME280;31492;54.856;26.318;2022-09-09T07:29:03;1008.4;;;15.9;88.5
45789;BME280;31492;54.856;26.318;2022-09-09T07:33:59;1008.3;;;16.5;84.5
45789;BME280;31492;54.856;26.318;2022-09-09T07:39:03;1008.2;;;17.1;68
45789;BME280;31492;54.856;26.318;2022-09-09T07:44:10;1008.2;;;17.6;61.2
45789;BME280;31492;54.856;26.318;2022-09-09T07:48:57;1008.2;;;18.1;57
45789;BME280;31492;54.856;26.318;2022-09-09T07:54:04;1008.1;;;18.7;52.6
45789;BME280;31492;54.856;26.318;2022-09-09T07:58:59;1008.1;;;19.2;50.9
45789;BME280;31492;54.856;26.318;2022-09-09T08:03:15;1008.1;;;19.9;49.7
45789;BME280;31492;54.856;26.318;2022-09-09T08:08:59;1008.1;;;20.3;48.2
45789;BME280;31492;54.856;26.318;2022-09-09T08:14:02;1008.1;;;20.5;47.5
45789;BME280;31492;54.856;26.318;2022-09-09T08:19:02;1008;;;21;46.4
45789;BME280;31492;54.856;26.318;2022-09-09T08:23:58;1008;;;21;43.9
45789;BME280;31492;54.856;26.318;2022-09-09T08:28:58;1007.9;;;21.5;42.8
45789;BME280;31492;54.856;26.318;2022-09-09T08:34:00;1007.9;;;21.7;41.2
45789;BME280;31492;54.856;26.318;2022-09-09T08:39:02;1007.8;;;22.1;41
45789;BME280;31492;54.856;26.318;2022-09-09T08:44:10;1007.8;;;22.4;39.7
45789;BME280;31492;54.856;26.318;2022-09-09T08:49:04;1007.7;;;22.4;40.4
45789;BME280;31492;54.856;26.318;2022-09-09T08:54:05;1007.6;;;22.7;36.6
45789;BME280;31492;54.856;26.318;2022-09-09T08:58:54;1007.6;;;22.8;35.2
45789;BME280;31492;54.856;26.318;2022-09-09T09:09:16;1007.6;;;23.2;35
45789;BME280;31492;54.856;26.318;2022-09-09T09:14:10;1007.6;;;23.5;35.2
45789;BME280;31492;54.856;26.318;2022-09-09T09:19:03;1007.5;;;23.9;34.2
45789;BME280;31492;54.856;26.318;2022-09-09T09:23:58;1007.4;;;23.9;33.9
45789;BME280;31492;54.856;26.318;2022-09-09T09:28:59;1007.5;;;23.7;33.7
45789;BME280;31492;54.856;26.318;2022-09-09T09:33:44;1007.4;;;23.3;34.5
45789;BME280;31492;54.856;26.318;2022-09-09T09:38:56;1007.4;;;22.9;35.3
45789;BME280;31492;54.856;26.318;2022-09-09T09:44:02;1007.4;;;23;34
45789;BME280;31492;54.856;26.318;2022-09-09T09:48:56;1007.4;;;23.6;33.4
45789;BME280;31492;54.856;26.318;2022-09-09T09:54:04;1007.4;;;23.7;33.3
45789;BME280;31492;54.856;26.318;2022-09-09T09:58:57;1007.4;;;24;32.9
45789;BME280;31492;54.856;26.318;2022-09-09T10:03:58;1007.4;;;23.4;32.6
45789;BME280;31492;54.856;26.318;2022-09-09T10:08:57;1007.4;;;23.3;33.7
45789;BME280;31492;54.856;26.318;2022-09-09T10:14:30;1007.3;;;24.2;33.9
45789;BME280;31492;54.856;26.318;2022-09-09T10:19:46;1007.2;;;24.7;31.4
45789;BME280;31492;54.856;26.318;2022-09-09T10:24:07;1007.2;;;25.1;31.3
45789;BME280;31492;54.856;26.318;2022-09-09T10:29:18;1007.2;;;24.9;31.1
45789;BME280;31492;54.856;26.318;2022-09-09T10:35:10;1007.1;;;25.1;32.2
45789;BME280;31492;54.856;26.318;2022-09-09T10:40:02;1007.2;;;25.4;31.4
45789;BME280;31492;54.856;26.318;2022-09-09T10:44:06;1007.1;;;25.6;31
45789;BME280;31492;54.856;26.318;2022-09-09T10:49:42;1007.2;;;25.3;30.5
45789;BME280;31492;54.856;26.318;2022-09-09T10:59:02;1007.3;;;25.2;30.2
45789;BME280;31492;54.856;26.318;2022-09-09T11:03:29;1007.2;;;24.7;30.5
45789;BME280;31492;54.856;26.318;2022-09-09T11:09:03;1007.3;;;23.6;31.5
45789;BME280;31492;54.856;26.318;2022-09-09T11:14:03;1007.3;;;23.7;31.9
45789;BME280;31492;54.856;26.318;2022-09-09T11:18:58;1007.4;;;22.6;32.1
45789;BME280;31492;54.856;26.318;2022-09-09T11:23:59;1007.5;;;21.7;33.4
45789;BME280;31492;54.856;26.318;2022-09-09T11:29:04;1007.5;;;21.8;33.4
45789;BME280;31492;54.856;26.318;2022-09-09T11:33:45;1007.5;;;21;34.5
45789;BME280;31492;54.856;26.318;2022-09-09T11:39:16;1007.6;;;19.9;36.1
45789;BME280;31492;54.856;26.318;2022-09-09T11:43:59;1007.6;;;20;37.1
45789;BME280;31492;54.856;26.318;2022-09-09T11:49:00;1007.5;;;20.2;37.7
45789;BME280;31492;54.856;26.318;2022-09-09T11:53:58;1007.5;;;20.3;37.3
45789;BME280;31492;54.856;26.318;2022-09-09T11:59:33;1007.5;;;20;37.1
45789;BME280;31492;54.856;26.318;2022-09-09T12:03:38;1007.5;;;19.8;38.2
45789;BME280;31492;54.856;26.318;2022-09-09T12:08:57;1007.5;;;19.8;37.8
45789;BME280;31492;54.856;26.318;2022-09-09T12:13:58;1007.5;;;19.9;37.9
45789;BME280;31492;54.856;26.318;2022-09-09T12:19:03;1007.5;;;19.9;38
45789;BME280;31492;54.856;26.318;2022-09-09T12:23:47;1007.4;;;19.8;38.2
45789;BME280;31492;54.856;26.318;2022-09-09T12:28:58;1007.3;;;20.2;38.4
45789;BME280;31492;54.856;26.318;2022-09-09T12:33:46;1007.2;;;20.2;37.9
45789;BME280;31492;54.856;26.318;2022-09-09T12:38:45;1007.1;;;20.7;37.2
45789;BME280;31492;54.856;26.318;2022-09-09T12:44:05;1007.1;;;20.4;37.3
45789;BME280;31492;54.856;26.318;2022-09-09T12:48:59;1007.1;;;20.6;37.3
45789;BME280;31492;54.856;26.318;2022-09-09T12:54:02;1007.1;;;20.9;37
45789;BME280;31492;54.856;26.318;2022-09-09T12:59:01;1007.1;;;20.6;36.9
45789;BME280;31492;54.856;26.318;2022-09-09T13:03:57;1007.2;;;19.9;37.8
45789;BME280;31492;54.856;26.318;2022-09-09T13:08:25;1007.1;;;20;39.1
45789;BME280;31492;54.856;26.318;2022-09-09T13:13:58;1007;;;20.1;37.6
45789;BME280;31492;54.856;26.318;2022-09-09T13:19:07;1007.1;;;20;38.7
45789;BME280;31492;54.856;26.318;2022-09-09T13:24:04;1007.1;;;19.9;38.5
45789;BME280;31492;54.856;26.318;2022-09-09T13:29:09;1007.1;;;19.8;38.9
45789;BME280;31492;54.856;26.318;2022-09-09T13:33:58;1007.1;;;19.4;39.3
45789;BME280;31492;54.856;26.318;2022-09-09T13:38:58;1007;;;19.1;39.2
45789;BME280;31492;54.856;26.318;2022-09-09T13:44:00;1007;;;18.7;39.8
45789;BME280;31492;54.856;26.318;2022-09-09T13:49:02;1006.9;;;18.5;39.9
45789;BME280;31492;54.856;26.318;2022-09-09T13:53:55;1006.8;;;18.3;41.1
45789;BME280;31492;54.856;26.318;2022-09-09T13:58:59;1006.8;;;17.9;40.9
45789;BME280;31492;54.856;26.318;2022-09-09T14:03:29;1006.8;;;17.6;42.6
45789;BME280;31492;54.856;26.318;2022-09-09T14:08:58;1006.7;;;17.3;43.2
45789;BME280;31492;54.856;26.318;2022-09-09T14:13:50;1006.7;;;17;44.5
45789;BME280;31492;54.856;26.318;2022-09-09T14:19:07;1006.6;;;16.8;45.3
45789;BME280;31492;54.856;26.318;2022-09-09T14:24:04;1006.7;;;16.5;44.5
45789;BME280;31492;54.856;26.318;2022-09-09T14:28:58;1006.6;;;16.3;43.6
45789;BME280;31492;54.856;26.318;2022-09-09T14:33:56;1006.6;;;16.1;43.1
45789;BME280;31492;54.856;26.318;2022-09-09T14:39:02;1006.6;;;16;43.4
45789;BME280;31492;54.856;26.318;2022-09-09T14:43:56;1006.5;;;15.8;44.8
45789;BME280;31492;54.856;26.318;2022-09-09T14:48:58;1006.5;;;15.7;44.6
45789;BME280;31492;54.856;26.318;2022-09-09T14:53:58;1006.5;;;15.7;45.7
45789;BME280;31492;54.856;26.318;2022-09-09T14:58:56;1006.5;;;15.6;47.6
45789;BME280;31492;54.856;26.318;2022-09-09T15:03:49;1006.6;;;15.5;48.6
45789;BME280;31492;54.856;26.318;2022-09-09T15:08:56;1006.6;;;15.3;49.9
45789;BME280;31492;54.856;26.318;2022-09-09T15:14:00;1006.7;;;15.2;50.4
45789;BME280;31492;54.856;26.318;2022-09-09T15:19:02;1006.7;;;15;54.4
45789;BME280;31492;54.856;26.318;2022-09-09T15:23:56;1006.7;;;14.8;57.8
45789;BME280;31492;54.856;26.318;2022-09-09T15:29:04;1006.7;;;14.7;60.9
45789;BME280;31492;54.856;26.318;2022-09-09T15:34:00;1006.7;;;14.5;66.3
45789;BME280;31492;54.856;26.318;2022-09-09T15:39:00;1006.8;;;14.3;71.2
45789;BME280;31492;54.856;26.318;2022-09-09T15:43:59;1006.8;;;14.1;80
45789;BME280;31492;54.856;26.318;2022-09-09T15:49:12;1006.9;;;13.8;90
45789;BME280;31492;54.856;26.318;2022-09-09T15:54:02;1006.9;;;13.6;94.8
45789;BME280;31492;54.856;26.318;2022-09-09T15:59:00;1006.9;;;13.4;100
45789;BME280;31492;54.856;26.318;2022-09-09T16:04:00;1006.9;;;13.1;100
45789;BME280;31492;54.856;26.318;2022-09-09T16:08:58;1006.9;;;12.9;100
45789;BME280;31492;54.856;26.318;2022-09-09T16:13:58;1006.9;;;12.7;100
45789;BME280;31492;54.856;26.318;2022-09-09T16:19:00;1006.9;;;12.5;100
45789;BME280;31492;54.856;26.318;2022-09-09T16:23:59;1006.9;;;12.4;100
45789;BME280;31492;54.856;26.318;2022-09-09T16:29:00;1006.9;;;12.4;100
45789;BME280;31492;54.856;26.318;2022-09-09T16:34:00;1006.9;;;12.3;100
45789;BME280;31492;54.856;26.318;2022-09-09T16:38:58;1007;;;12.1;100
45789;BME280;31492;54.856;26.318;2022-09-09T16:44:05;1007;;;11.9;100
45789;BME280;31492;54.856;26.318;2022-09-09T16:49:03;1007;;;11.7;100
45789;BME280;31492;54.856;26.318;2022-09-09T16:54:00;1007;;;11.5;100
45789;BME280;31492;54.856;26.318;2022-09-09T16:58:59;1007;;;11.3;100
45789;BME280;31492;54.856;26.318;2022-09-09T17:04:00;1007;;;11.1;100
45789;BME280;31492;54.856;26.318;2022-09-09T17:09:03;1007.1;;;10.9;100
45789;BME280;31492;54.856;26.318;2022-09-09T17:14:00;1007.1;;;10.7;100
45789;BME280;31492;54.856;26.318;2022-09-09T17:19:00;1007.1;;;10.6;100
45789;BME280;31492;54.856;26.318;2022-09-09T17:23:58;1007.1;;;10.5;100
45789;BME280;31492;54.856;26.318;2022-09-09T17:28:58;1007.2;;;10.3;100
45789;BME280;31492;54.856;26.318;2022-09-09T17:34:00;1007.2;;;10.2;100
45789;BME280;31492;54.856;26.318;2022-09-09T17:38:58;1007.3;;;10.1;100
45789;BME280;31492;54.856;26.318;2022-09-09T17:43:48;1007.3;;;10;100
45789;BME280;31492;54.856;26.318;2022-09-09T17:49:02;1007.4;;;9.9;100
45789;BME280;31492;54.856;26.318;2022-09-09T17:54:04;1007.4;;;9.8;100
45789;BME280;31492;54.856;26.318;2022-09-09T17:59:06;1007.4;;;9.6;100
45789;BME280;31492;54.856;26.318;2022-09-09T18:04:07;1007.4;;;9.5;100
45789;BME280;31492;54.856;26.318;2022-09-09T18:09:05;1007.4;;;9.4;100
45789;BME280;31492;54.856;26.318;2022-09-09T18:14:00;1007.4;;;9.3;100
45789;BME280;31492;54.856;26.318;2022-09-09T18:19:04;1007.4;;;9.2;100
45789;BME280;31492;54.856;26.318;2022-09-09T18:24:06;1007.4;;;9.1;100
45789;BME280;31492;54.856;26.318;2022-09-09T18:29:01;1007.4;;;9;100
45789;BME280;31492;54.856;26.318;2022-09-09T18:34:00;1007.4;;;8.9;100
45789;BME280;31492;54.856;26.318;2022-09-09T18:38:56;1007.4;;;8.9;100
45789;BME280;31492;54.856;26.318;2022-09-09T18:44:03;1007.4;;;8.8;100
45789;BME280;31492;54.856;26.318;2022-09-09T18:48:58;1007.4;;;8.7;100
45789;BME280;31492;54.856;26.318;2022-09-09T18:53:59;1007.5;;;8.5;100
45789;BME280;31492;54.856;26.318;2022-09-09T18:59:01;1007.5;;;8.4;100
45789;BME280;31492;54.856;26.318;2022-09-09T19:04:00;1007.4;;;8.4;100
45789;BME280;31492;54.856;26.318;2022-09-09T19:08:58;1007.4;;;8.4;100
45789;BME280;31492;54.856;26.318;2022-09-09T19:14:04;1007.5;;;8.3;100
45789;BME280;31492;54.856;26.318;2022-09-09T19:18:58;1007.5;;;8.3;100
45789;BME280;31492;54.856;26.318;2022-09-09T19:24:03;1007.5;;;8.2;100
45789;BME280;31492;54.856;26.318;2022-09-09T19:28:58;1007.5;;;8.1;100
45789;BME280;31492;54.856;26.318;2022-09-09T19:33:58;1007.5;;;8;100
45789;BME280;31492;54.856;26.318;2022-09-09T19:39:00;1007.5;;;8;100
45789;BME280;31492;54.856;26.318;2022-09-09T19:43:59;1007.5;;;7.9;100
45789;BME280;31492;54.856;26.318;2022-09-09T19:48:58;1007.5;;;7.8;100
45789;BME280;31492;54.856;26.318;2022-09-09T19:54:00;1007.5;;;7.7;100
45789;BME280;31492;54.856;26.318;2022-09-09T19:59:02;1007.5;;;7.7;100
45789;BME280;31492;54.856;26.318;2022-09-09T20:03:47;1007.5;;;7.6;100
45789;BME280;31492;54.856;26.318;2022-09-09T20:08:58;1007.5;;;7.5;100
45789;BME280;31492;54.856;26.318;2022-09-09T20:14:02;1007.5;;;7.4;100
45789;BME280;31492;54.856;26.318;2022-09-09T20:18:59;1007.5;;;7.4;100
45789;BME280;31492;54.856;26.318;2022-09-09T20:24:05;1007.5;;;7.3;100
45789;BME280;31492;54.856;26.318;2022-09-09T20:29:05;1007.5;;;7.2;100
45789;BME280;31492;54.856;26.318;2022-09-09T20:34:04;1007.5;;;7.2;100
45789;BME280;31492;54.856;26.318;2022-09-09T20:39:03;1007.5;;;7.2;100
45789;BME280;31492;54.856;26.318;2022-09-09T20:43:59;1007.6;;;7.2;100
45789;BME280;31492;54.856;26.318;2022-09-09T20:49:06;1007.6;;;7.1;100
45789;BME280;31492;54.856;26.318;2022-09-09T20:54:08;1007.6;;;7.1;100
45789;BME280;31492;54.856;26.318;2022-09-09T20:59:00;1007.7;;;7;100
45789;BME280;31492;54.856;26.318;2022-09-09T21:04:00;1007.7;;;6.9;100
45789;BME280;31492;54.856;26.318;2022-09-09T21:08:52;1007.7;;;6.9;100
45789;BME280;31492;54.856;26.318;2022-09-09T21:14:00;1007.7;;;6.8;100
45789;BME280;31492;54.856;26.318;2022-09-09T21:18:56;1007.7;;;6.8;100
45789;BME280;31492;54.856;26.318;2022-09-09T21:23:58;1007.8;;;6.8;100
45789;BME280;31492;54.856;26.318;2022-09-09T21:29:02;1007.8;;;6.7;100
45789;BME280;31492;54.856;26.318;2022-09-09T21:34:00;1007.7;;;6.7;100
45789;BME280;31492;54.856;26.318;2022-09-09T21:39:00;1007.7;;;6.6;100
45789;BME280;31492;54.856;26.318;2022-09-09T21:44:04;1007.7;;;6.6;100
45789;BME280;31492;54.856;26.318;2022-09-09T21:49:02;1007.6;;;6.5;100
45789;BME280;31492;54.856;26.318;2022-09-09T21:54:00;1007.6;;;6.4;100
45789;BME280;31492;54.856;26.318;2022-09-09T21:58:59;1007.6;;;6.3;100
45789;BME280;31492;54.856;26.318;2022-09-09T22:03:58;1007.7;;;6.3;100
45789;BME280;31492;54.856;26.318;2022-09-09T22:08:58;1007.6;;;6.2;100
45789;BME280;31492;54.856;26.318;2022-09-09T22:14:04;1007.6;;;6.2;100
45789;BME280;31492;54.856;26.318;2022-09-09T22:18:58;1007.6;;;6.1;100
45789;BME280;31492;54.856;26.318;2022-09-09T22:23:57;1007.5;;;6;100
45789;BME280;31492;54.856;26.318;2022-09-09T22:28:58;1007.5;;;6.2;100
45789;BME280;31492;54.856;26.318;2022-09-09T22:33:50;1007.5;;;6.3;100
45789;BME280;31492;54.856;26.318;2022-09-09T22:39:02;1007.5;;;6.4;100
